GOMOS weather

Public forecast

Using degrees Celsius for public forecast. Weather courtesy of forecast.io.

Closest aviation weather report (METAR) to Agriturismo Turus

Closest report is Trieste–Friuli Venezia Giulia Airport, 6.5 nm (12.0 km) SSW. Retrieved 2020/08/09 14:20 UTC (0 seconds ago):

LIPQ 091420Z AUTO 24007KT 9999 NCD 33/21 Q1014

Closest aviation forecast (TAF) to Agriturismo Turus

Closest forecast is Trieste–Friuli Venezia Giulia Airport, 6.5 nm (12.0 km) SSW. Retrieved 2020/08/09 12:21 UTC (2 hours ago):

TAF LIPQ 091100Z 0912/1012 08008KT 9999 FEW050